Recent Observations

This page presents the weather data from the last 72 hours at 30 minute intervals.

Last updated at 1:00:19 pm AEST on Tue 18 June 2024.

Last 24 hours
Date/Time(AEST) Temp. ( °C) Dew Point ( °C) Relative Humidity (%) Apparent Temp. ( °C) Wind Direction Wind Speed (kph) Wind Gust (kph) Wind Speed (kts) Wind Gust (kts) MSL Pressure (hPa) Rain since midnight (mm)
18/06 1:00 pm 21.0 8.4 44 19.3 SW 7 19 4 10 1013.6 0.0
18/06 12:30 pm 21.2 9.3 47 16.9 SW 6 12 3 6 1014.4 0.0
18/06 12:00 pm 20.5 9.2 48 17.5 SW 4 10 2 5 1014.3 0.0
18/06 11:30 am 20.2 9.3 50 17.3 S 4 10 2 5 1015.0 0.0
18/06 11:00 am 19.4 8.7 50 15.6 S 5 10 3 5 1015.6 0.0
18/06 10:30 am 19.1 8.4 50 15.2 SSW 5 12 3 6 1015.8 0.0
18/06 10:00 am 18.3 8.9 54 14.5 SSW 5 10 3 5 1015.8 0.0
18/06 9:30 am 15.9 8.9 64 13.6 WNW 3 8 2 4 1016.2 0.0
18/06 9:00 am 13.6 7.9 69 11.7 SW 2 6 1 3 1015.8 0.0
18/06 8:30 am 11.4 7.4 77 10.8 W 0 2 0 1 1015.8 0.0
18/06 8:00 am 8.8 6.6 86 8 SW 0 2 0 1 1015.8 0.0
18/06 7:30 am 7.1 5.2 88 6 CALM 0 0 0 0 1015.8 0.0
18/06 7:00 am 6.4 4.4 87 5.2 CALM 0 0 0 0 1015.7 0.0
18/06 6:30 am 6.7 4.3 85 5.4 CALM 0 0 0 0 1015.3 0.0
18/06 6:00 am 7.1 4.5 84 5.9 CALM 0 0 0 0 1015.0 0.0
18/06 5:30 am 7.7 4.7 81 6.5 CALM 0 0 0 0 1014.7 0.0
18/06 5:00 am 8.3 4.7 78 7.1 CALM 0 0 0 0 1014.3 0.0
18/06 4:30 am 9.1 4.9 75 8 CALM 0 0 0 0 1014.0 0.0
18/06 4:00 am 10.0 5.5 74 9 W 0 4 0 2 1014.1 0.0
18/06 3:30 am 10.3 5.5 72 8.6 W 1 6 1 3 1014.1 0.0
18/06 3:00 am 10.8 5.6 70 7.7 WSW 3 10 2 5 1014.2 0.0
18/06 2:30 am 10.7 5.4 70 9 WSW 1 6 1 3 1014.2 0.0
18/06 2:00 am 10.7 5.4 70 9 SW 1 8 1 4 1014.1 0.0
18/06 1:30 am 9.7 5.3 74 6.5 WSW 3 12 2 6 1014.3 0.0
18/06 1:00 am 9.2 4.7 74 8 CALM 0 0 0 0 1014.8 0.0
18/06 12:30 am 9.8 4.7 71 8.6 CALM 0 0 0 0 1014.4 0.0
18/06 12:00 am 10.6 4.6 67 9.4 CALM 0 0 0 0 1014.5 0.0
17/06 11:30 pm 11.6 4.8 63 10.4 CALM 0 0 0 0 1015.0 0.0
17/06 11:00 pm 12.2 4.7 60 8.9 SW 3 15 2 8 1014.9 0.0
17/06 10:30 pm 12.3 4.6 59 5.5 WSW 8 15 4 8 1014.9 0.0
17/06 10:00 pm 12.4 4.6 59 4.9 WSW 10 17 5 9 1015.1 0.0
17/06 9:30 pm 12.4 4.4 58 4.2 WSW 10 17 5 9 1015.1 0.0
17/06 9:00 pm 12.6 4.2 56 3.6 WSW 11 17 6 9 1015.0 0.0
17/06 8:30 pm 12.8 3.7 54 5.8 WSW 8 19 4 10 1014.7 0.0
17/06 8:00 pm 13.3 3.5 51 5.6 WSW 9 21 5 11 1014.3 0.0
17/06 7:30 pm 13.6 2.9 48 5.8 W 9 15 5 8 1014.0 0.0
17/06 7:00 pm 13.9 2.2 45 6.7 W 8 15 4 8 1013.5 0.0
17/06 6:30 pm 14.4 1.7 42 9.2 WSW 5 10 3 5 1013.1 0.0
17/06 6:00 pm 14.9 0.9 38 3.2 SW 14 19 8 10 1012.7 0.0
17/06 5:30 pm 15.3 0.5 37 4.3 W 13 19 7 10 1012.4 0.0
17/06 5:00 pm 16.1 1.0 36 8.7 W 8 15 4 8 1011.9 0.0
17/06 4:30 pm 17.2 1.2 34 8.4 W 10 21 5 11 1011.5 0.0
17/06 4:00 pm 18.3 1.2 32 7.4 WSW 13 27 7 15 1011.4 0.0
17/06 3:30 pm 19.6 1.0 29 11.5 WSW 9 19 5 10 1011.4 0.0
17/06 3:00 pm 19.8 0.0 27 9.5 WSW 12 23 6 12 1011.2 0.0
17/06 2:30 pm 20.2 0.7 27 9.9 SW 12 21 6 11 1011.3 0.0
17/06 2:00 pm 20.1 1.7 30 10.7 WSW 11 19 6 10 1011.2 0.0
17/06 1:30 pm 19.6 2.6 32 8.9 SW 13 21 7 11 1011.2 0.0
24 to 48 hours ago
Date/Time(AEST) Temp. °C Dew Point °C Relative Humidity % Appararent Temp. °C Wind Direction Wind Speed (kph) Wind Gust (kph) Wind Speed (kts) Wind Gust (kts) MSL Pressure (hPa) Rain since midnight (mm)
17/06 1:00 pm 19.8 4.2 36 12.2 SW 9 17 5 9 1011.3 0.0
17/06 12:30 pm 19.6 4.2 36 12.7 W 8 21 4 11 1011.5 0.0
17/06 12:00 pm 19.1 5.0 40 12.4 WSW 8 15 4 8 1012.2 0.0
17/06 11:30 am 18.3 5.1 42 7.4 WSW 14 23 8 12 1012.7 0.0
17/06 11:00 am 17.9 4.7 42 11.1 WSW 8 14 4 8 1013.1 0.0
17/06 10:30 am 17.3 6.1 48 10.8 WSW 8 15 4 8 1013.6 0.0
17/06 10:00 am 16.3 6.4 52 9.2 WSW 9 17 5 9 1014.1 0.0
17/06 9:30 am 14.3 6.1 58 7.8 SW 8 19 4 10 1014.2 0.0
17/06 9:00 am 13.3 6.7 64 9 WSW 5 14 3 8 1014.3 0.0
17/06 8:30 am 12.4 6.4 67 8.8 W 4 10 2 5 1014.0 0.0
17/06 8:00 am 11.3 6.9 75 7.1 W 5 14 3 8 1013.7 0.0
17/06 7:30 am 10.2 6.7 79 5.2 W 6 15 3 8 1013.3 0.0
17/06 7:00 am 9.6 6.4 80 4.6 W 6 17 3 9 1013.2 0.0
17/06 6:30 am 9.9 6.4 79 7.7 WSW 2 8 1 4 1013.0 0.0
17/06 6:00 am 8.3 6.2 87 3.2 W 6 15 3 8 1013.0 0.0
17/06 5:30 am 8.2 5.8 85 7.2 WNW 0 4 0 2 1013.0 0.0
17/06 5:00 am 8.9 6.3 84 8.1 CALM 0 0 0 0 1012.8 0.0
17/06 4:30 am 9.4 6.4 82 8.6 CALM 0 0 0 0 1012.5 0.0
17/06 4:00 am 10.1 6.7 80 9.4 CALM 0 0 0 0 1012.4 0.0
17/06 3:30 am 11.0 7.1 77 10.3 NW 0 4 0 2 1012.4 0.0
17/06 3:00 am 11.4 7.4 76 6.6 WSW 6 14 3 8 1012.7 0.0
17/06 2:30 am 11.3 7.2 76 9.3 WSW 2 10 1 5 1012.8 0.0
17/06 2:00 am 11.7 7.4 75 6.9 WSW 6 12 3 6 1013.1 0.0
17/06 1:30 am 11.7 7.4 75 10.4 W 1 6 1 3 1013.1 0.0
17/06 1:00 am 12.4 7.6 72 11.8 NNE 0 4 0 2 1013.2 0.0
17/06 12:30 am 12.8 7.6 71 9.5 WSW 4 17 2 9 1013.2 0.0
17/06 12:00 am 13.2 7.8 70 4.3 W 12 15 6 8 1013.3 0.0
16/06 11:30 pm 12.8 7.6 70 8 W 6 15 3 8 1013.3 0.0
16/06 11:00 pm 13.0 7.4 69 11 W 2 17 1 9 1013.7 0.0
16/06 10:30 pm 13.8 7.6 66 11.1 W 3 10 2 5 1013.9 0.0
16/06 10:00 pm 14.5 7.7 64 9.8 W 11 25 6 13 1013.7 0.0
16/06 9:30 pm 15.2 7.7 61 7 WSW 11 25 6 13 1013.7 0.0
16/06 9:00 pm 15.3 7.5 60 9.1 WSW 8 17 4 9 1013.9 0.0
16/06 8:30 pm 15.7 7.4 58 9.5 WSW 8 21 4 11 1014.1 0.0
16/06 8:00 pm 16.0 7.4 57 9.1 WSW 9 14 5 8 1013.9 0.0
16/06 7:30 pm 16.2 7.5 56 10 WSW 8 19 4 10 1013.6 0.0
16/06 7:00 pm 16.2 7.4 56 10 WSW 8 15 4 8 1013.1 0.0
16/06 6:30 pm 16.3 7.6 56 10.8 WSW 7 17 4 9 1012.9 0.0
16/06 6:00 pm 16.0 8.3 60 10 W 8 14 4 8 1012.7 0.0
16/06 5:30 pm 16.1 9.1 63 13.1 W 4 6 2 3 1012.4 0.0
16/06 5:00 pm 16.6 10.3 67 16.8 CALM 0 0 0 0 1012.1 0.0
16/06 4:30 pm 17.4 10.4 64 17.6 CALM 0 0 0 0 1011.7 0.0
16/06 4:00 pm 19.1 9.4 53 19 CALM 0 0 0 0 1011.4 0.0
16/06 3:30 pm 20.7 9.1 48 18.5 NW 3 10 2 5 1011.2 0.0
16/06 3:00 pm 21.5 10.0 48 20.2 WSW 2 10 1 5 1011.0 0.0
16/06 2:30 pm 21.3 9.6 47 10.7 WSW 15 15 8 8 1011.0 0.0
16/06 2:00 pm 21.0 10.4 51 16.3 W 7 17 4 9 1011.2 0.0
16/06 1:30 pm 20.6 10.2 51 16.5 S 6 17 3 9 1011.5 0.0
48 to 72 hours ago
Date/Time(AEST) Temp. °C Dew Point °C Relative Humidity % Appararent Temp. °C Wind Direction Wind Speed (kph) Wind Gust (kph) Wind Speed (kts) Wind Gust (kts) MSL Pressure (hPa) Rain since midnight (mm)
16/06 1:00 pm 20.3 10.2 52 14.8 SW 8 21 4 11 1011.5 0.0
16/06 12:30 pm 20.4 9.8 51 14.8 W 8 15 4 8 1011.7 0.0
16/06 12:00 pm 19.9 9.7 52 12.9 WSW 10 19 5 10 1011.9 0.0
16/06 11:30 am 19.8 10.0 53 15.6 SSW 6 15 3 8 1012.6 0.0
16/06 11:00 am 18.8 9.8 56 13.9 SSW 7 15 4 8 1013.0 0.0
16/06 10:30 am 18.7 10.0 57 14.5 SW 6 15 3 8 1013.3 0.0
16/06 10:00 am 17.6 9.7 60 13.4 SSW 6 12 3 6 1013.3 0.0
16/06 9:30 am 16.0 9.3 64 11.6 SW 6 14 3 8 1013.7 0.0
16/06 9:00 am 15.3 9.2 67 10.9 SSW 6 17 3 9 1013.6 0.0
16/06 8:30 am 13.6 9.3 75 12.7 SSE 1 6 1 3 1013.4 0.0
16/06 8:00 am 11.9 8.4 79 11.5 CALM 0 0 0 0 1013.0 0.0
16/06 7:30 am 10.8 7.7 81 10.3 CALM 0 0 0 0 1012.8 0.0
16/06 7:00 am 10.4 7.4 82 7 WSW 4 12 2 6 1012.8 0.0
16/06 6:30 am 9.8 7.1 83 7 WSW 3 8 2 4 1012.4 0.0
16/06 6:00 am 9.3 6.6 83 7.8 WNW 1 4 1 2 1012.3 0.0
16/06 5:30 am 9.6 6.7 82 8.1 W 1 6 1 3 1012.1 0.0
16/06 5:00 am 10.2 7.1 81 9.5 WSW 0 4 0 2 1011.6 0.0
16/06 4:30 am 10.1 7.1 82 7.3 WSW 3 8 2 4 1011.5 0.0
16/06 4:00 am 10.0 6.7 80 9.2 CALM 0 0 0 0 1011.6 0.0
16/06 3:30 am 10.7 6.8 77 10 CALM 0 0 0 0 1011.5 0.0
16/06 3:00 am 10.7 6.9 78 9.3 W 1 8 1 4 1011.9 0.0
16/06 2:30 am 11.1 7.1 76 10.4 CALM 0 0 0 0 1011.9 0.0
16/06 2:00 am 11.1 6.8 75 10.4 SSW 0 4 0 2 1012.0 0.0
16/06 1:30 am 12.1 7.2 72 11.4 CALM 0 0 0 0 1011.9 0.0
16/06 1:00 am 12.5 7.3 71 8.4 WSW 5 15 3 8 1012.1 0.0
16/06 12:30 am 12.4 7.4 71 6.2 W 8 17 4 9 1012.1 0.0
16/06 12:00 am 11.7 6.9 72 10.3 WSW 1 6 1 3 1012.2 0.0
15/06 11:30 pm 12.3 7.1 70 11.6 CALM 0 0 0 0 1011.9 0.0
15/06 11:00 pm 12.9 7.1 68 12.2 WNW 0 4 0 2 1012.0 0.0
15/06 10:30 pm 13.1 6.9 66 11.7 W 1 6 1 3 1012.1 0.0
15/06 10:00 pm 14.3 7.2 62 13.6 CALM 2 8 1 4 1012.2 0.0
15/06 9:30 pm 14.9 7.1 59 12.8 WSW 2 8 1 4 1012.2 0.0
15/06 9:00 pm 15.7 7.1 57 13.6 WSW 2 8 1 4 1012.0 0.0
15/06 8:30 pm 16.2 7.1 55 10.6 WSW 7 17 4 9 1011.9 0.0
15/06 8:00 pm 16.7 6.9 52 11.1 WSW 7 19 4 10 1012.1 0.0
15/06 7:30 pm 17.3 6.9 51 11 WSW 8 17 4 9 1011.6 0.0
15/06 7:00 pm 17.7 6.8 49 7.9 WSW 13 21 7 11 1011.2 0.0
15/06 6:30 pm 18.0 6.9 48 13.1 WSW 6 12 3 6 1010.9 0.0
15/06 6:00 pm 18.4 6.8 46 10.6 WSW 10 17 5 9 1010.4 0.0
15/06 5:30 pm 18.4 6.7 46 14.8 WSW 4 8 2 4 1010.0 0.0
15/06 5:00 pm 19.6 6.6 43 15.3 W 5 12 3 6 1009.7 0.0
15/06 4:30 pm 20.8 5.9 38 12.2 W 11 17 6 9 1009.7 0.0
15/06 4:00 pm 22.1 5.3 34 15.5 W 8 17 4 9 1009.4 0.0
15/06 3:30 pm 22.8 5.8 33 19.7 W 3 12 2 6 1009.2 0.0
15/06 3:00 pm 22.9 5.7 33 16.3 WSW 8 17 4 9 1009.3 0.0
15/06 2:30 pm 22.7 5.2 32 15.3 W 9 23 5 12 1009.4 0.0
15/06 2:00 pm 22.7 5.9 34 16.2 WSW 8 17 4 9 1009.5 0.0
15/06 1:30 pm 22.9 7.6 37 18.1 WSW 6 15 3 8 1009.8 0.0